sensor_id;sensor_type;location;lat;lon;timestamp;P1;durP1;ratioP1;P2;durP2;ratioP2
22995;SDS011;11664;49.774;8.650;2022-11-14T00:00:12;20.10;;;12.40;;
22995;SDS011;11664;49.774;8.650;2022-11-14T00:02:39;17.08;;;10.98;;
22995;SDS011;11664;49.774;8.650;2022-11-14T00:05:05;15.68;;;10.10;;
22995;SDS011;11664;49.774;8.650;2022-11-14T00:07:32;18.00;;;10.68;;
22995;SDS011;11664;49.774;8.650;2022-11-14T00:09:59;18.33;;;10.88;;
22995;SDS011;11664;49.774;8.650;2022-11-14T00:12:24;19.35;;;11.30;;
22995;SDS011;11664;49.774;8.650;2022-11-14T00:14:50;22.38;;;11.88;;
22995;SDS011;11664;49.774;8.650;2022-11-14T00:17:16;21.02;;;9.85;;
22995;SDS011;11664;49.774;8.650;2022-11-14T00:19:42;15.30;;;10.50;;
22995;SDS011;11664;49.774;8.650;2022-11-14T00:22:07;18.13;;;11.68;;
22995;SDS011;11664;49.774;8.650;2022-11-14T00:24:33;20.80;;;12.88;;
22995;SDS011;11664;49.774;8.650;2022-11-14T00:26:59;19.75;;;15.52;;
22995;SDS011;11664;49.774;8.650;2022-11-14T00:29:24;32.10;;;15.02;;
22995;SDS011;11664;49.774;8.650;2022-11-14T00:31:50;18.45;;;11.77;;
22995;SDS011;11664;49.774;8.650;2022-11-14T00:34:15;19.77;;;11.70;;
22995;SDS011;11664;49.774;8.650;2022-11-14T00:36:41;20.48;;;12.55;;
22995;SDS011;11664;49.774;8.650;2022-11-14T00:39:10;30.58;;;12.38;;
22995;SDS011;11664;49.774;8.650;2022-11-14T00:41:36;26.52;;;11.82;;
22995;SDS011;11664;49.774;8.650;2022-11-14T00:44:02;24.90;;;11.77;;
22995;SDS011;11664;49.774;8.650;2022-11-14T00:46:28;31.42;;;11.55;;
22995;SDS011;11664;49.774;8.650;2022-11-14T00:48:53;40.05;;;11.27;;
22995;SDS011;11664;49.774;8.650;2022-11-14T00:51:19;29.75;;;10.70;;
22995;SDS011;11664;49.774;8.650;2022-11-14T00:53:44;25.67;;;11.40;;
22995;SDS011;11664;49.774;8.650;2022-11-14T00:56:10;16.30;;;9.80;;
22995;SDS011;11664;49.774;8.650;2022-11-14T00:58:35;33.08;;;11.60;;
22995;SDS011;11664;49.774;8.650;2022-11-14T01:01:01;22.63;;;10.35;;
22995;SDS011;11664;49.774;8.650;2022-11-14T01:03:26;16.90;;;9.27;;
22995;SDS011;11664;49.774;8.650;2022-11-14T01:05:52;24.05;;;10.23;;
22995;SDS011;11664;49.774;8.650;2022-11-14T01:08:18;16.80;;;10.60;;
22995;SDS011;11664;49.774;8.650;2022-11-14T01:10:45;16.05;;;11.30;;
22995;SDS011;11664;49.774;8.650;2022-11-14T01:13:12;16.08;;;9.27;;
22995;SDS011;11664;49.774;8.650;2022-11-14T01:15:39;22.83;;;10.15;;
22995;SDS011;11664;49.774;8.650;2022-11-14T01:18:05;16.40;;;9.35;;
22995;SDS011;11664;49.774;8.650;2022-11-14T01:20:31;16.88;;;9.15;;
22995;SDS011;11664;49.774;8.650;2022-11-14T01:22:57;30.58;;;11.07;;
22995;SDS011;11664;49.774;8.650;2022-11-14T01:25:23;33.38;;;9.60;;
22995;SDS011;11664;49.774;8.650;2022-11-14T01:27:48;31.95;;;9.27;;
22995;SDS011;11664;49.774;8.650;2022-11-14T01:30:14;27.13;;;10.57;;
22995;SDS011;11664;49.774;8.650;2022-11-14T01:32:39;13.70;;;9.00;;
22995;SDS011;11664;49.774;8.650;2022-11-14T01:35:05;17.88;;;9.32;;
22995;SDS011;11664;49.774;8.650;2022-11-14T01:37:31;24.92;;;9.63;;
22995;SDS011;11664;49.774;8.650;2022-11-14T01:39:57;15.88;;;9.70;;
22995;SDS011;11664;49.774;8.650;2022-11-14T01:42:22;28.42;;;8.90;;
22995;SDS011;11664;49.774;8.650;2022-11-14T01:44:49;21.15;;;9.82;;
22995;SDS011;11664;49.774;8.650;2022-11-14T01:47:20;25.02;;;8.57;;
22995;SDS011;11664;49.774;8.650;2022-11-14T01:49:51;16.75;;;10.25;;
22995;SDS011;11664;49.774;8.650;2022-11-14T01:52:24;12.18;;;7.80;;
22995;SDS011;11664;49.774;8.650;2022-11-14T01:54:53;21.38;;;12.30;;
22995;SDS011;11664;49.774;8.650;2022-11-14T01:57:23;21.80;;;10.13;;
22995;SDS011;11664;49.774;8.650;2022-11-14T01:59:53;15.13;;;10.45;;
22995;SDS011;11664;49.774;8.650;2022-11-14T02:02:22;23.50;;;8.75;;
22995;SDS011;11664;49.774;8.650;2022-11-14T02:04:50;25.30;;;9.95;;
22995;SDS011;11664;49.774;8.650;2022-11-14T02:07:20;23.73;;;9.38;;
22995;SDS011;11664;49.774;8.650;2022-11-14T02:09:48;14.02;;;9.38;;
22995;SDS011;11664;49.774;8.650;2022-11-14T02:12:15;12.50;;;8.80;;
22995;SDS011;11664;49.774;8.650;2022-11-14T02:14:43;14.20;;;9.30;;
22995;SDS011;11664;49.774;8.650;2022-11-14T02:17:11;15.98;;;8.77;;
22995;SDS011;11664;49.774;8.650;2022-11-14T02:22:21;26.05;;;8.98;;
22995;SDS011;11664;49.774;8.650;2022-11-14T02:24:47;38.78;;;8.80;;
22995;SDS011;11664;49.774;8.650;2022-11-14T02:27:13;45.97;;;9.52;;
22995;SDS011;11664;49.774;8.650;2022-11-14T02:29:40;16.08;;;9.27;;
22995;SDS011;11664;49.774;8.650;2022-11-14T02:32:06;55.00;;;11.55;;
22995;SDS011;11664;49.774;8.650;2022-11-14T02:34:32;27.35;;;9.80;;
22995;SDS011;11664;49.774;8.650;2022-11-14T02:36:57;11.57;;;9.10;;
22995;SDS011;11664;49.774;8.650;2022-11-14T02:39:23;14.55;;;10.18;;
22995;SDS011;11664;49.774;8.650;2022-11-14T02:41:49;27.90;;;10.75;;
22995;SDS011;11664;49.774;8.650;2022-11-14T02:44:15;19.58;;;10.50;;
22995;SDS011;11664;49.774;8.650;2022-11-14T02:46:41;21.25;;;12.75;;
22995;SDS011;11664;49.774;8.650;2022-11-14T02:49:07;21.40;;;11.52;;
22995;SDS011;11664;49.774;8.650;2022-11-14T02:51:32;35.15;;;9.73;;
22995;SDS011;11664;49.774;8.650;2022-11-14T02:53:58;18.98;;;9.20;;
22995;SDS011;11664;49.774;8.650;2022-11-14T02:56:23;24.58;;;10.80;;
22995;SDS011;11664;49.774;8.650;2022-11-14T02:58:49;20.70;;;10.10;;
22995;SDS011;11664;49.774;8.650;2022-11-14T03:01:14;14.18;;;10.23;;
22995;SDS011;11664;49.774;8.650;2022-11-14T03:03:40;10.48;;;8.77;;
22995;SDS011;11664;49.774;8.650;2022-11-14T03:06:05;15.68;;;10.73;;
22995;SDS011;11664;49.774;8.650;2022-11-14T03:08:31;14.68;;;8.90;;
22995;SDS011;11664;49.774;8.650;2022-11-14T03:11:02;21.10;;;8.98;;
22995;SDS011;11664;49.774;8.650;2022-11-14T03:13:28;20.60;;;9.52;;
22995;SDS011;11664;49.774;8.650;2022-11-14T03:15:54;19.50;;;12.68;;
22995;SDS011;11664;49.774;8.650;2022-11-14T03:18:20;33.92;;;23.42;;
22995;SDS011;11664;49.774;8.650;2022-11-14T03:20:46;21.90;;;17.63;;
22995;SDS011;11664;49.774;8.650;2022-11-14T03:23:11;14.45;;;9.90;;
22995;SDS011;11664;49.774;8.650;2022-11-14T03:25:37;15.52;;;8.70;;
22995;SDS011;11664;49.774;8.650;2022-11-14T03:28:03;14.13;;;9.27;;
22995;SDS011;11664;49.774;8.650;2022-11-14T03:30:29;13.07;;;10.27;;
22995;SDS011;11664;49.774;8.650;2022-11-14T03:32:55;19.42;;;9.05;;
22995;SDS011;11664;49.774;8.650;2022-11-14T03:35:22;16.42;;;12.93;;
22995;SDS011;11664;49.774;8.650;2022-11-14T03:37:48;17.25;;;11.43;;
22995;SDS011;11664;49.774;8.650;2022-11-14T03:40:13;17.38;;;14.85;;
22995;SDS011;11664;49.774;8.650;2022-11-14T03:42:39;17.10;;;11.20;;
22995;SDS011;11664;49.774;8.650;2022-11-14T03:45:04;13.63;;;11.48;;
22995;SDS011;11664;49.774;8.650;2022-11-14T03:47:30;11.48;;;10.02;;
22995;SDS011;11664;49.774;8.650;2022-11-14T03:49:56;10.68;;;8.25;;
22995;SDS011;11664;49.774;8.650;2022-11-14T03:52:21;14.40;;;9.45;;
22995;SDS011;11664;49.774;8.650;2022-11-14T03:54:47;12.43;;;9.88;;
22995;SDS011;11664;49.774;8.650;2022-11-14T03:57:12;13.18;;;9.77;;
22995;SDS011;11664;49.774;8.650;2022-11-14T03:59:39;13.35;;;9.32;;
22995;SDS011;11664;49.774;8.650;2022-11-14T04:02:05;11.27;;;8.80;;
22995;SDS011;11664;49.774;8.650;2022-11-14T04:04:30;13.30;;;9.68;;
22995;SDS011;11664;49.774;8.650;2022-11-14T04:06:56;14.60;;;10.23;;
22995;SDS011;11664;49.774;8.650;2022-11-14T04:09:21;15.10;;;10.52;;
22995;SDS011;11664;49.774;8.650;2022-11-14T04:11:48;17.27;;;9.82;;
22995;SDS011;11664;49.774;8.650;2022-11-14T04:14:13;15.15;;;9.52;;
22995;SDS011;11664;49.774;8.650;2022-11-14T04:16:39;13.98;;;10.18;;
22995;SDS011;11664;49.774;8.650;2022-11-14T04:19:04;13.35;;;8.85;;
22995;SDS011;11664;49.774;8.650;2022-11-14T04:21:30;12.48;;;8.43;;
22995;SDS011;11664;49.774;8.650;2022-11-14T04:23:55;13.45;;;9.13;;
22995;SDS011;11664;49.774;8.650;2022-11-14T04:26:21;13.55;;;8.82;;
22995;SDS011;11664;49.774;8.650;2022-11-14T04:28:47;14.38;;;8.52;;
22995;SDS011;11664;49.774;8.650;2022-11-14T04:31:12;13.88;;;10.00;;
22995;SDS011;11664;49.774;8.650;2022-11-14T04:33:38;13.02;;;9.15;;
22995;SDS011;11664;49.774;8.650;2022-11-14T04:36:03;15.50;;;9.52;;
22995;SDS011;11664;49.774;8.650;2022-11-14T04:38:29;12.73;;;10.18;;
22995;SDS011;11664;49.774;8.650;2022-11-14T04:40:55;13.23;;;11.88;;
22995;SDS011;11664;49.774;8.650;2022-11-14T04:43:21;14.98;;;9.88;;
22995;SDS011;11664;49.774;8.650;2022-11-14T04:45:47;14.27;;;9.30;;
22995;SDS011;11664;49.774;8.650;2022-11-14T04:48:13;16.38;;;10.23;;
22995;SDS011;11664;49.774;8.650;2022-11-14T04:50:39;13.02;;;10.07;;
22995;SDS011;11664;49.774;8.650;2022-11-14T04:53:04;13.40;;;8.10;;
22995;SDS011;11664;49.774;8.650;2022-11-14T04:55:30;14.45;;;9.45;;
22995;SDS011;11664;49.774;8.650;2022-11-14T04:57:56;18.80;;;9.65;;
22995;SDS011;11664;49.774;8.650;2022-11-14T05:00:23;10.75;;;9.13;;
22995;SDS011;11664;49.774;8.650;2022-11-14T05:02:49;16.58;;;14.98;;
22995;SDS011;11664;49.774;8.650;2022-11-14T05:05:14;15.68;;;14.07;;
22995;SDS011;11664;49.774;8.650;2022-11-14T05:07:40;17.67;;;12.95;;
22995;SDS011;11664;49.774;8.650;2022-11-14T05:10:06;15.93;;;11.40;;
22995;SDS011;11664;49.774;8.650;2022-11-14T05:12:32;14.05;;;12.55;;
22995;SDS011;11664;49.774;8.650;2022-11-14T05:14:58;15.80;;;11.23;;
22995;SDS011;11664;49.774;8.650;2022-11-14T05:17:24;11.85;;;8.32;;
22995;SDS011;11664;49.774;8.650;2022-11-14T05:19:49;12.63;;;8.68;;
22995;SDS011;11664;49.774;8.650;2022-11-14T05:22:15;16.48;;;11.25;;
22995;SDS011;11664;49.774;8.650;2022-11-14T05:24:40;14.20;;;11.45;;
22995;SDS011;11664;49.774;8.650;2022-11-14T05:27:06;14.02;;;11.13;;
22995;SDS011;11664;49.774;8.650;2022-11-14T05:29:31;16.35;;;10.57;;
22995;SDS011;11664;49.774;8.650;2022-11-14T05:31:57;13.82;;;11.30;;
22995;SDS011;11664;49.774;8.650;2022-11-14T05:34:23;19.27;;;13.55;;
22995;SDS011;11664;49.774;8.650;2022-11-14T05:36:48;19.13;;;10.63;;
22995;SDS011;11664;49.774;8.650;2022-11-14T05:39:14;17.27;;;10.13;;
22995;SDS011;11664;49.774;8.650;2022-11-14T05:41:40;16.88;;;11.70;;
22995;SDS011;11664;49.774;8.650;2022-11-14T05:44:06;13.32;;;8.80;;
22995;SDS011;11664;49.774;8.650;2022-11-14T05:46:31;13.50;;;8.93;;
22995;SDS011;11664;49.774;8.650;2022-11-14T05:48:57;17.85;;;10.88;;
22995;SDS011;11664;49.774;8.650;2022-11-14T05:51:23;17.45;;;9.43;;
22995;SDS011;11664;49.774;8.650;2022-11-14T05:53:48;13.70;;;8.15;;
22995;SDS011;11664;49.774;8.650;2022-11-14T05:56:14;15.68;;;10.02;;
22995;SDS011;11664;49.774;8.650;2022-11-14T05:58:40;13.80;;;8.18;;
22995;SDS011;11664;49.774;8.650;2022-11-14T06:01:10;18.48;;;14.05;;
22995;SDS011;11664;49.774;8.650;2022-11-14T06:03:38;19.05;;;12.93;;
22995;SDS011;11664;49.774;8.650;2022-11-14T06:06:06;30.50;;;18.38;;
22995;SDS011;11664;49.774;8.650;2022-11-14T06:08:33;23.02;;;14.18;;
22995;SDS011;11664;49.774;8.650;2022-11-14T06:11:10;20.55;;;11.90;;
22995;SDS011;11664;49.774;8.650;2022-11-14T06:13:38;21.50;;;10.82;;
22995;SDS011;11664;49.774;8.650;2022-11-14T06:16:05;18.05;;;10.82;;
22995;SDS011;11664;49.774;8.650;2022-11-14T06:18:35;21.73;;;16.27;;
22995;SDS011;11664;49.774;8.650;2022-11-14T06:21:02;16.45;;;10.90;;
22995;SDS011;11664;49.774;8.650;2022-11-14T06:23:35;19.50;;;11.43;;
22995;SDS011;11664;49.774;8.650;2022-11-14T06:26:02;24.25;;;12.40;;
22995;SDS011;11664;49.774;8.650;2022-11-14T06:28:29;22.30;;;15.10;;
22995;SDS011;11664;49.774;8.650;2022-11-14T06:30:55;20.15;;;12.85;;
22995;SDS011;11664;49.774;8.650;2022-11-14T06:33:25;20.13;;;12.18;;
22995;SDS011;11664;49.774;8.650;2022-11-14T06:35:56;21.38;;;11.63;;
22995;SDS011;11664;49.774;8.650;2022-11-14T06:38:23;18.27;;;10.27;;
22995;SDS011;11664;49.774;8.650;2022-11-14T06:40:48;19.85;;;14.20;;
22995;SDS011;11664;49.774;8.650;2022-11-14T06:43:14;19.55;;;11.05;;
22995;SDS011;11664;49.774;8.650;2022-11-14T06:45:39;17.95;;;11.32;;
22995;SDS011;11664;49.774;8.650;2022-11-14T06:48:05;16.55;;;14.82;;
22995;SDS011;11664;49.774;8.650;2022-11-14T06:50:31;15.43;;;12.95;;
22995;SDS011;11664;49.774;8.650;2022-11-14T06:52:57;18.80;;;13.02;;
22995;SDS011;11664;49.774;8.650;2022-11-14T06:55:23;20.17;;;15.70;;
22995;SDS011;11664;49.774;8.650;2022-11-14T06:57:52;20.25;;;14.07;;
22995;SDS011;11664;49.774;8.650;2022-11-14T07:00:19;18.33;;;13.63;;
22995;SDS011;11664;49.774;8.650;2022-11-14T07:02:45;22.38;;;15.10;;
22995;SDS011;11664;49.774;8.650;2022-11-14T07:05:12;20.55;;;16.05;;
22995;SDS011;11664;49.774;8.650;2022-11-14T07:07:37;18.20;;;12.77;;
22995;SDS011;11664;49.774;8.650;2022-11-14T07:10:03;18.73;;;15.52;;
22995;SDS011;11664;49.774;8.650;2022-11-14T07:12:28;15.80;;;12.82;;
22995;SDS011;11664;49.774;8.650;2022-11-14T07:14:56;21.40;;;12.05;;
22995;SDS011;11664;49.774;8.650;2022-11-14T07:17:24;24.58;;;16.50;;
22995;SDS011;11664;49.774;8.650;2022-11-14T07:19:50;15.25;;;12.07;;
22995;SDS011;11664;49.774;8.650;2022-11-14T07:22:15;17.10;;;12.73;;
22995;SDS011;11664;49.774;8.650;2022-11-14T07:24:41;13.95;;;10.80;;
22995;SDS011;11664;49.774;8.650;2022-11-14T07:27:06;14.18;;;10.95;;
22995;SDS011;11664;49.774;8.650;2022-11-14T07:29:35;19.75;;;11.50;;
22995;SDS011;11664;49.774;8.650;2022-11-14T07:32:00;17.75;;;11.70;;
22995;SDS011;11664;49.774;8.650;2022-11-14T07:34:26;19.10;;;10.85;;
22995;SDS011;11664;49.774;8.650;2022-11-14T07:36:52;12.73;;;10.57;;
22995;SDS011;11664;49.774;8.650;2022-11-14T07:39:19;20.60;;;13.00;;
22995;SDS011;11664;49.774;8.650;2022-11-14T07:41:44;16.42;;;10.57;;
22995;SDS011;11664;49.774;8.650;2022-11-14T07:44:47;17.35;;;10.73;;
22995;SDS011;11664;49.774;8.650;2022-11-14T07:53:47;18.02;;;13.43;;
22995;SDS011;11664;49.774;8.650;2022-11-14T07:56:18;17.35;;;12.27;;
22995;SDS011;11664;49.774;8.650;2022-11-14T07:58:47;20.02;;;17.33;;
22995;SDS011;11664;49.774;8.650;2022-11-14T08:01:22;26.08;;;21.17;;
22995;SDS011;11664;49.774;8.650;2022-11-14T08:03:59;19.73;;;14.60;;
22995;SDS011;11664;49.774;8.650;2022-11-14T08:06:42;22.70;;;20.20;;
22995;SDS011;11664;49.774;8.650;2022-11-14T08:09:17;25.48;;;19.23;;
22995;SDS011;11664;49.774;8.650;2022-11-14T08:12:05;19.90;;;14.77;;
22995;SDS011;11664;49.774;8.650;2022-11-14T08:14:39;22.25;;;13.52;;
22995;SDS011;11664;49.774;8.650;2022-11-14T08:17:05;20.67;;;13.00;;
22995;SDS011;11664;49.774;8.650;2022-11-14T08:19:30;17.95;;;11.73;;
22995;SDS011;11664;49.774;8.650;2022-11-14T08:21:56;24.83;;;16.95;;
22995;SDS011;11664;49.774;8.650;2022-11-14T08:24:21;17.70;;;10.57;;
22995;SDS011;11664;49.774;8.650;2022-11-14T08:29:45;18.55;;;11.95;;
22995;SDS011;11664;49.774;8.650;2022-11-14T08:32:16;16.30;;;12.15;;
22995;SDS011;11664;49.774;8.650;2022-11-14T08:35:00;22.38;;;14.38;;
22995;SDS011;11664;49.774;8.650;2022-11-14T08:37:31;25.83;;;20.90;;
22995;SDS011;11664;49.774;8.650;2022-11-14T08:39:57;23.17;;;14.95;;
22995;SDS011;11664;49.774;8.650;2022-11-14T08:42:28;15.85;;;12.23;;
22995;SDS011;11664;49.774;8.650;2022-11-14T08:45:11;15.90;;;13.05;;
22995;SDS011;11664;49.774;8.650;2022-11-14T08:47:50;16.02;;;12.90;;
22995;SDS011;11664;49.774;8.650;2022-11-14T08:50:22;17.17;;;11.90;;
22995;SDS011;11664;49.774;8.650;2022-11-14T08:52:52;15.85;;;13.48;;
22995;SDS011;11664;49.774;8.650;2022-11-14T08:55:23;15.05;;;11.48;;
22995;SDS011;11664;49.774;8.650;2022-11-14T08:57:49;18.70;;;12.52;;
22995;SDS011;11664;49.774;8.650;2022-11-14T09:00:18;17.27;;;12.05;;
22995;SDS011;11664;49.774;8.650;2022-11-14T09:02:43;15.68;;;11.63;;
22995;SDS011;11664;49.774;8.650;2022-11-14T09:05:12;17.58;;;12.65;;
22995;SDS011;11664;49.774;8.650;2022-11-14T09:07:37;14.27;;;11.77;;
22995;SDS011;11664;49.774;8.650;2022-11-14T09:10:03;14.00;;;10.65;;
22995;SDS011;11664;49.774;8.650;2022-11-14T09:12:30;13.57;;;9.63;;
22995;SDS011;11664;49.774;8.650;2022-11-14T09:14:55;15.85;;;11.52;;
22995;SDS011;11664;49.774;8.650;2022-11-14T09:17:21;14.50;;;12.07;;
22995;SDS011;11664;49.774;8.650;2022-11-14T09:19:46;20.75;;;10.90;;
22995;SDS011;11664;49.774;8.650;2022-11-14T09:22:12;15.18;;;10.20;;
22995;SDS011;11664;49.774;8.650;2022-11-14T09:24:37;21.70;;;9.65;;
22995;SDS011;11664;49.774;8.650;2022-11-14T09:27:03;13.55;;;9.30;;
22995;SDS011;11664;49.774;8.650;2022-11-14T09:29:28;20.23;;;9.85;;
22995;SDS011;11664;49.774;8.650;2022-11-14T09:31:54;14.43;;;8.77;;
22995;SDS011;11664;49.774;8.650;2022-11-14T09:34:20;10.77;;;9.30;;
22995;SDS011;11664;49.774;8.650;2022-11-14T09:36:46;15.90;;;9.88;;
22995;SDS011;11664;49.774;8.650;2022-11-14T09:39:12;10.95;;;7.30;;
22995;SDS011;11664;49.774;8.650;2022-11-14T09:41:47;12.45;;;7.70;;
22995;SDS011;11664;49.774;8.650;2022-11-14T09:44:36;13.52;;;7.60;;
22995;SDS011;11664;49.774;8.650;2022-11-14T09:47:15;13.30;;;8.73;;
22995;SDS011;11664;49.774;8.650;2022-11-14T09:50:18;15.48;;;8.70;;
22995;SDS011;11664;49.774;8.650;2022-11-14T09:52:49;14.98;;;8.65;;
22995;SDS011;11664;49.774;8.650;2022-11-14T09:55:24;16.40;;;9.75;;
22995;SDS011;11664;49.774;8.650;2022-11-14T09:57:53;14.00;;;8.60;;
22995;SDS011;11664;49.774;8.650;2022-11-14T10:00:20;11.75;;;7.75;;
22995;SDS011;11664;49.774;8.650;2022-11-14T10:02:58;16.15;;;9.32;;
22995;SDS011;11664;49.774;8.650;2022-11-14T10:05:38;15.82;;;8.60;;
22995;SDS011;11664;49.774;8.650;2022-11-14T10:11:42;17.65;;;9.48;;
22995;SDS011;11664;49.774;8.650;2022-11-14T10:14:30;12.32;;;8.85;;
22995;SDS011;11664;49.774;8.650;2022-11-14T10:39:10;15.10;;;8.40;;
22995;SDS011;11664;49.774;8.650;2022-11-14T10:41:54;14.73;;;8.40;;
22995;SDS011;11664;49.774;8.650;2022-11-14T10:44:25;18.33;;;7.90;;
22995;SDS011;11664;49.774;8.650;2022-11-14T10:49:29;10.13;;;7.50;;
22995;SDS011;11664;49.774;8.650;2022-11-14T10:52:01;13.47;;;8.50;;
22995;SDS011;11664;49.774;8.650;2022-11-14T10:54:32;16.75;;;9.98;;
22995;SDS011;11664;49.774;8.650;2022-11-14T10:57:12;14.25;;;9.10;;
22995;SDS011;11664;49.774;8.650;2022-11-14T10:59:41;14.57;;;9.43;;
22995;SDS011;11664;49.774;8.650;2022-11-14T11:02:07;13.60;;;9.93;;
22995;SDS011;11664;49.774;8.650;2022-11-14T11:04:34;11.10;;;8.52;;
22995;SDS011;11664;49.774;8.650;2022-11-14T11:09:33;13.23;;;8.07;;
22995;SDS011;11664;49.774;8.650;2022-11-14T11:12:37;10.85;;;7.40;;
22995;SDS011;11664;49.774;8.650;2022-11-14T11:15:24;11.43;;;6.70;;
22995;SDS011;11664;49.774;8.650;2022-11-14T11:20:36;12.38;;;6.30;;
22995;SDS011;11664;49.774;8.650;2022-11-14T11:25:39;10.60;;;8.93;;
22995;SDS011;11664;49.774;8.650;2022-11-14T11:30:55;7.00;;;5.55;;
22995;SDS011;11664;49.774;8.650;2022-11-14T11:33:26;6.80;;;5.85;;
22995;SDS011;11664;49.774;8.650;2022-11-14T11:35:54;6.53;;;5.93;;
22995;SDS011;11664;49.774;8.650;2022-11-14T11:38:23;7.28;;;6.13;;
22995;SDS011;11664;49.774;8.650;2022-11-14T11:40:50;7.22;;;4.65;;
22995;SDS011;11664;49.774;8.650;2022-11-14T11:46:03;5.53;;;5.03;;
22995;SDS011;11664;49.774;8.650;2022-11-14T11:48:36;8.73;;;4.18;;
22995;SDS011;11664;49.774;8.650;2022-11-14T11:51:03;4.35;;;4.05;;
22995;SDS011;11664;49.774;8.650;2022-11-14T11:53:31;4.72;;;4.32;;
22995;SDS011;11664;49.774;8.650;2022-11-14T11:56:24;4.57;;;4.32;;
22995;SDS011;11664;49.774;8.650;2022-11-14T11:58:54;4.47;;;4.18;;
22995;SDS011;11664;49.774;8.650;2022-11-14T12:01:34;4.38;;;4.03;;
22995;SDS011;11664;49.774;8.650;2022-11-14T12:04:00;3.88;;;3.58;;
22995;SDS011;11664;49.774;8.650;2022-11-14T12:06:26;3.90;;;3.40;;
22995;SDS011;11664;49.774;8.650;2022-11-14T12:09:18;6.53;;;4.85;;
22995;SDS011;11664;49.774;8.650;2022-11-14T12:11:56;5.68;;;4.88;;
22995;SDS011;11664;49.774;8.650;2022-11-14T12:15:09;5.93;;;4.43;;
22995;SDS011;11664;49.774;8.650;2022-11-14T12:17:26;4.72;;;4.32;;
22995;SDS011;11664;49.774;8.650;2022-11-14T12:23:09;3.70;;;3.50;;
22995;SDS011;11664;49.774;8.650;2022-11-14T12:31:29;3.22;;;3.03;;
22995;SDS011;11664;49.774;8.650;2022-11-14T12:33:58;3.70;;;3.33;;
22995;SDS011;11664;49.774;8.650;2022-11-14T12:36:28;3.45;;;3.20;;
22995;SDS011;11664;49.774;8.650;2022-11-14T12:38:57;3.05;;;2.85;;
22995;SDS011;11664;49.774;8.650;2022-11-14T12:41:26;3.40;;;3.05;;
22995;SDS011;11664;49.774;8.650;2022-11-14T12:44:15;6.13;;;4.20;;
22995;SDS011;11664;49.774;8.650;2022-11-14T12:54:44;3.00;;;2.80;;
22995;SDS011;11664;49.774;8.650;2022-11-14T12:57:14;3.30;;;3.10;;
22995;SDS011;11664;49.774;8.650;2022-11-14T13:00:06;4.25;;;3.20;;
22995;SDS011;11664;49.774;8.650;2022-11-14T13:08:03;3.95;;;3.65;;
22995;SDS011;11664;49.774;8.650;2022-11-14T13:10:40;5.00;;;4.55;;
22995;SDS011;11664;49.774;8.650;2022-11-14T13:13:07;4.35;;;3.95;;
22995;SDS011;11664;49.774;8.650;2022-11-14T13:15:52;4.18;;;3.85;;
22995;SDS011;11664;49.774;8.650;2022-11-14T13:25:14;3.50;;;3.30;;
22995;SDS011;11664;49.774;8.650;2022-11-14T13:27:35;5.05;;;3.53;;
22995;SDS011;11664;49.774;8.650;2022-11-14T13:30:04;4.40;;;4.13;;
22995;SDS011;11664;49.774;8.650;2022-11-14T13:35:15;3.88;;;3.67;;
22995;SDS011;11664;49.774;8.650;2022-11-14T13:38:30;4.72;;;3.75;;
22995;SDS011;11664;49.774;8.650;2022-11-14T13:41:12;3.90;;;3.60;;
22995;SDS011;11664;49.774;8.650;2022-11-14T13:52:04;3.15;;;2.92;;
22995;SDS011;11664;49.774;8.650;2022-11-14T13:54:30;4.28;;;3.17;;
22995;SDS011;11664;49.774;8.650;2022-11-14T13:57:06;3.58;;;3.38;;
22995;SDS011;11664;49.774;8.650;2022-11-14T14:02:35;3.67;;;3.38;;
22995;SDS011;11664;49.774;8.650;2022-11-14T14:05:36;3.35;;;3.13;;
22995;SDS011;11664;49.774;8.650;2022-11-14T14:11:19;3.80;;;3.50;;
22995;SDS011;11664;49.774;8.650;2022-11-14T14:31:00;8.07;;;6.63;;
22995;SDS011;11664;49.774;8.650;2022-11-14T14:33:42;9.23;;;5.03;;
22995;SDS011;11664;49.774;8.650;2022-11-14T14:36:20;8.30;;;5.93;;
22995;SDS011;11664;49.774;8.650;2022-11-14T14:38:46;7.85;;;5.35;;
22995;SDS011;11664;49.774;8.650;2022-11-14T14:41:12;6.53;;;5.68;;
22995;SDS011;11664;49.774;8.650;2022-11-14T14:43:42;6.18;;;5.40;;
22995;SDS011;11664;49.774;8.650;2022-11-14T14:46:13;6.93;;;6.35;;
22995;SDS011;11664;49.774;8.650;2022-11-14T14:48:39;5.97;;;5.38;;
22995;SDS011;11664;49.774;8.650;2022-11-14T14:51:11;8.10;;;5.07;;
22995;SDS011;11664;49.774;8.650;2022-11-14T14:53:37;11.35;;;5.97;;
22995;SDS011;11664;49.774;8.650;2022-11-14T14:56:05;6.07;;;4.65;;
22995;SDS011;11664;49.774;8.650;2022-11-14T14:58:41;8.45;;;5.35;;
22995;SDS011;11664;49.774;8.650;2022-11-14T15:01:11;6.85;;;6.13;;
22995;SDS011;11664;49.774;8.650;2022-11-14T15:03:38;8.50;;;5.82;;
22995;SDS011;11664;49.774;8.650;2022-11-14T15:06:25;5.45;;;4.30;;
22995;SDS011;11664;49.774;8.650;2022-11-14T15:08:59;8.55;;;5.82;;
22995;SDS011;11664;49.774;8.650;2022-11-14T15:11:32;5.72;;;5.07;;
22995;SDS011;11664;49.774;8.650;2022-11-14T15:13:58;5.22;;;4.72;;
22995;SDS011;11664;49.774;8.650;2022-11-14T15:16:25;6.50;;;5.90;;
22995;SDS011;11664;49.774;8.650;2022-11-14T15:18:55;6.82;;;6.13;;
22995;SDS011;11664;49.774;8.650;2022-11-14T15:21:23;8.68;;;7.88;;
22995;SDS011;11664;49.774;8.650;2022-11-14T15:23:57;6.90;;;6.30;;
22995;SDS011;11664;49.774;8.650;2022-11-14T15:29:44;6.15;;;4.70;;
22995;SDS011;11664;49.774;8.650;2022-11-14T15:32:15;6.80;;;6.20;;
22995;SDS011;11664;49.774;8.650;2022-11-14T15:34:49;8.25;;;5.50;;
22995;SDS011;11664;49.774;8.650;2022-11-14T15:38:05;6.65;;;5.40;;
22995;SDS011;11664;49.774;8.650;2022-11-14T15:42:58;4.68;;;4.20;;
22995;SDS011;11664;49.774;8.650;2022-11-14T15:45:25;6.55;;;4.68;;
22995;SDS011;11664;49.774;8.650;2022-11-14T15:48:10;5.60;;;5.15;;
22995;SDS011;11664;49.774;8.650;2022-11-14T15:50:38;4.72;;;4.32;;
22995;SDS011;11664;49.774;8.650;2022-11-14T15:53:15;5.05;;;4.60;;
22995;SDS011;11664;49.774;8.650;2022-11-14T15:55:46;7.00;;;4.25;;
22995;SDS011;11664;49.774;8.650;2022-11-14T15:58:12;6.00;;;5.45;;
22995;SDS011;11664;49.774;8.650;2022-11-14T16:00:39;5.05;;;4.43;;
22995;SDS011;11664;49.774;8.650;2022-11-14T16:05:36;4.93;;;4.53;;
22995;SDS011;11664;49.774;8.650;2022-11-14T16:08:01;5.97;;;4.30;;
22995;SDS011;11664;49.774;8.650;2022-11-14T16:10:27;10.07;;;5.15;;
22995;SDS011;11664;49.774;8.650;2022-11-14T16:12:53;8.32;;;5.53;;
22995;SDS011;11664;49.774;8.650;2022-11-14T16:15:18;6.03;;;4.97;;
22995;SDS011;11664;49.774;8.650;2022-11-14T16:17:45;5.18;;;4.68;;
22995;SDS011;11664;49.774;8.650;2022-11-14T16:20:19;7.53;;;6.15;;
22995;SDS011;11664;49.774;8.650;2022-11-14T16:22:50;5.93;;;4.65;;
22995;SDS011;11664;49.774;8.650;2022-11-14T16:25:27;5.53;;;5.03;;
22995;SDS011;11664;49.774;8.650;2022-11-14T16:27:54;4.57;;;4.18;;
22995;SDS011;11664;49.774;8.650;2022-11-14T16:30:20;7.93;;;7.32;;
22995;SDS011;11664;49.774;8.650;2022-11-14T16:32:48;10.82;;;10.02;;
22995;SDS011;11664;49.774;8.650;2022-11-14T16:35:17;10.60;;;8.30;;
22995;SDS011;11664;49.774;8.650;2022-11-14T16:37:44;6.03;;;5.45;;
22995;SDS011;11664;49.774;8.650;2022-11-14T16:40:19;7.40;;;4.18;;
22995;SDS011;11664;49.774;8.650;2022-11-14T16:42:55;5.55;;;4.18;;
22995;SDS011;11664;49.774;8.650;2022-11-14T16:45:22;5.03;;;4.63;;
22995;SDS011;11664;49.774;8.650;2022-11-14T16:47:49;7.65;;;4.30;;
22995;SDS011;11664;49.774;8.650;2022-11-14T16:50:15;5.35;;;4.85;;